Time;durP1;ratioP1;P1;durP2;ratioP2;P2;SDS_P1;SDS_P2;PMS_P1;PMS_P2;Temp;Humidity;BMP_temperature;BMP_pressure;BME280_temperature;BME280_humidity;BME280_pressure;Samples;Min_cycle;Max_cycle;Signal;HPM_P1;HPM_P2
2023/12/12 00:01:28;;;;;;;28.93;7.00;;;;;8.20;100298.00;;;;10121704;29;20234;-81
2023/12/12 00:06:30;;;;;;;27.00;6.13;;;;;8.10;100301.00;;;;10105868;29;20226;-81
2023/12/12 00:11:31;;;;;;;32.77;6.50;;;;;8.00;100290.00;;;;10104426;29;20257;-81
2023/12/12 00:16:32;;;;;;;28.33;6.70;;;;;8.00;100294.00;;;;10118425;29;20227;-81
2023/12/12 00:21:33;;;;;;;37.43;7.90;;;;;7.90;100285.00;;;;10120006;29;20245;-82
2023/12/12 00:26:34;;;;;;;31.50;8.47;;;;;7.90;100294.00;;;;10108021;29;20322;-81
2023/12/12 00:31:35;;;;;;;36.77;7.43;;;;;7.80;100284.00;;;;10118950;29;20278;-82
2023/12/12 00:36:37;;;;;;;29.77;7.03;;;;;7.80;100286.00;;;;10112705;29;20242;-81
2023/12/12 00:41:38;;;;;;;35.17;6.80;;;;;7.70;100282.00;;;;10122934;29;20234;-82
2023/12/12 00:46:39;;;;;;;33.47;6.60;;;;;7.60;100278.00;;;;10097347;29;20346;-81
2023/12/12 00:51:40;;;;;;;23.53;5.87;;;;;7.70;100274.00;;;;10109851;29;20298;-81
2023/12/12 00:56:44;;;;;;;36.47;7.17;;;;;7.80;100274.00;;;;10116683;29;20991;-82
2023/12/12 01:01:45;;;;;;;37.57;7.20;;;;;7.80;100272.00;;;;10101429;29;20227;-81
2023/12/12 01:06:46;;;;;;;38.40;7.27;;;;;7.90;100282.00;;;;10105336;29;20323;-82
2023/12/12 01:11:47;;;;;;;39.13;8.03;;;;;7.90;100279.00;;;;10101485;29;20222;-81
2023/12/12 01:16:48;;;;;;;28.10;7.17;;;;;7.90;100278.00;;;;10122080;29;20254;-81
2023/12/12 01:21:50;;;;;;;34.67;6.57;;;;;7.90;100282.00;;;;10095170;29;20242;-82
2023/12/12 01:26:51;;;;;;;33.37;6.97;;;;;8.00;100283.00;;;;10132875;29;20236;-87
2023/12/12 01:31:52;;;;;;;37.03;7.37;;;;;8.00;100281.00;;;;10131224;29;20227;-87
2023/12/12 01:36:54;;;;;;;45.20;7.03;;;;;8.10;100267.00;;;;10148312;29;20226;-89
2023/12/12 01:41:55;;;;;;;27.87;6.27;;;;;8.20;100261.00;;;;10131824;29;20592;-90
2023/12/12 01:46:56;;;;;;;27.67;7.17;;;;;8.30;100264.00;;;;10135709;29;20234;-88
2023/12/12 01:51:58;;;;;;;35.50;7.07;;;;;8.30;100250.00;;;;10143962;29;20227;-87
2023/12/12 01:56:59;;;;;;;30.30;5.97;;;;;8.30;100257.00;;;;10153570;29;20294;-88
2023/12/12 02:02:01;;;;;;;27.07;6.30;;;;;8.40;100253.00;;;;10136127;29;20222;-87
2023/12/12 02:07:04;;;;;;;27.47;7.10;;;;;8.40;100268.00;;;;10148985;29;20271;-88
2023/12/12 02:12:05;;;;;;;34.10;7.40;;;;;8.40;100249.00;;;;10124362;29;20290;-90
2023/12/12 02:17:06;;;;;;;32.73;7.00;;;;;8.40;100249.00;;;;10137712;29;20227;-89
2023/12/12 02:22:07;;;;;;;29.00;7.43;;;;;8.40;100243.00;;;;10113394;29;20222;-87
2023/12/12 02:27:09;;;;;;;24.90;5.97;;;;;8.40;100239.00;;;;10111525;29;20232;-88
2023/12/12 02:32:10;;;;;;;28.60;6.27;;;;;8.40;100246.00;;;;10112715;29;20227;-87
2023/12/12 02:37:11;;;;;;;37.30;7.33;;;;;8.30;100237.00;;;;10124116;29;20326;-84
2023/12/12 02:42:12;;;;;;;30.80;5.80;;;;;8.30;100242.00;;;;10109400;29;20234;-83
2023/12/12 02:47:13;;;;;;;37.07;6.90;;;;;8.20;100225.00;;;;10118715;29;20303;-84
2023/12/12 02:52:14;;;;;;;17.23;6.40;;;;;8.20;100219.00;;;;10138603;29;20282;-84
2023/12/12 02:57:15;;;;;;;23.70;5.93;;;;;8.20;100212.00;;;;10108700;29;20740;-83
2023/12/12 03:02:17;;;;;;;34.87;5.77;;;;;8.20;100204.00;;;;10119297;29;20222;-83
2023/12/12 03:07:18;;;;;;;33.17;5.80;;;;;8.30;100194.00;;;;10130900;29;20235;-84
2023/12/12 03:12:19;;;;;;;33.20;6.13;;;;;8.40;100175.00;;;;10130895;29;20233;-83
2023/12/12 03:17:20;;;;;;;27.77;5.67;;;;;8.40;100173.00;;;;10123696;29;20234;-83
2023/12/12 03:22:21;;;;;;;19.93;5.33;;;;;8.50;100164.00;;;;10102951;29;20239;-83
2023/12/12 03:27:23;;;;;;;25.33;4.93;;;;;8.50;100161.00;;;;10131567;29;20223;-84
2023/12/12 03:32:24;;;;;;;28.90;5.80;;;;;8.60;100146.00;;;;10127718;29;20231;-83
2023/12/12 03:37:25;;;;;;;28.53;5.57;;;;;8.60;100127.00;;;;10114833;29;20226;-84
2023/12/12 03:42:27;;;;;;;28.33;6.03;;;;;8.60;100117.00;;;;10103935;29;20247;-84
2023/12/12 03:47:28;;;;;;;30.33;5.30;;;;;8.50;100116.00;;;;10092953;29;20310;-83
2023/12/12 03:52:29;;;;;;;28.77;5.13;;;;;8.30;100095.00;;;;10111630;29;20250;-82
2023/12/12 03:57:30;;;;;;;31.93;6.70;;;;;8.20;100113.00;;;;10127532;29;20815;-82
2023/12/12 04:02:32;;;;;;;30.23;5.90;;;;;8.20;100098.00;;;;10097457;29;20238;-82
2023/12/12 04:07:33;;;;;;;32.50;5.93;;;;;8.20;100089.00;;;;10108917;29;20681;-82
2023/12/12 04:12:36;;;;;;;25.87;5.80;;;;;8.20;100093.00;;;;10116004;29;20258;-83
2023/12/12 04:17:37;;;;;;;25.07;5.93;;;;;8.20;100084.00;;;;10124712;29;20985;-83
2023/12/12 04:22:38;;;;;;;23.63;5.87;;;;;8.20;100090.00;;;;10101204;29;20253;-82
2023/12/12 04:27:39;;;;;;;27.03;5.90;;;;;8.20;100087.00;;;;10108736;29;20301;-83
2023/12/12 04:32:41;;;;;;;28.77;6.53;;;;;8.20;100091.00;;;;10101968;29;20231;-82
2023/12/12 04:37:42;;;;;;;21.33;5.87;;;;;8.20;100098.00;;;;10128199;29;20239;-82
2023/12/12 04:42:44;;;;;;;29.60;6.10;;;;;8.30;100095.00;;;;10151539;28;20222;-83
2023/12/12 04:47:45;;;;;;;26.53;5.77;;;;;8.30;100089.00;;;;10129969;29;20226;-83
2023/12/12 04:52:46;;;;;;;28.03;5.80;;;;;8.30;100089.00;;;;10134062;29;20987;-82
2023/12/12 04:57:47;;;;;;;22.70;5.67;;;;;8.40;100082.00;;;;10129809;29;20705;-83
2023/12/12 05:02:48;;;;;;;29.00;6.40;;;;;8.40;100079.00;;;;10113824;29;20954;-84
2023/12/12 05:07:51;;;;;;;28.07;6.20;;;;;8.40;100079.00;;;;10127046;29;20248;-83
2023/12/12 05:12:52;;;;;;;34.07;7.00;;;;;8.40;100059.00;;;;10109753;29;20315;-85
2023/12/12 05:17:53;;;;;;;25.67;6.43;;;;;8.50;100066.00;;;;10104038;29;20238;-83
2023/12/12 05:22:55;;;;;;;33.43;6.83;;;;;8.50;100057.00;;;;10105976;29;20230;-85
2023/12/12 05:27:56;;;;;;;23.97;5.60;;;;;8.50;100053.00;;;;10104754;29;20722;-83
2023/12/12 05:32:57;;;;;;;23.03;6.60;;;;;8.50;100045.00;;;;10108573;29;20226;-84
2023/12/12 05:37:58;;;;;;;28.67;6.30;;;;;8.40;100030.00;;;;10123704;29;20567;-82
2023/12/12 05:42:59;;;;;;;26.57;6.43;;;;;8.40;100026.00;;;;10124246;29;20574;-83
2023/12/12 05:48:04;;;;;;;18.33;6.73;;;;;8.40;100018.00;;;;10109809;29;20214;-84
2023/12/12 05:53:06;;;;;;;21.87;6.60;;;;;8.40;100012.00;;;;10100013;29;20568;-83
2023/12/12 05:58:07;;;;;;;18.63;6.00;;;;;8.40;100003.00;;;;10096981;29;20745;-83
2023/12/12 06:03:08;;;;;;;20.40;6.20;;;;;8.40;100005.00;;;;10106627;29;20810;-81
2023/12/12 06:08:11;;;;;;;22.63;5.63;;;;;8.50;100001.00;;;;10129033;29;20788;-85
2023/12/12 06:13:13;;;;;;;27.27;6.23;;;;;8.60;100003.00;;;;10128884;29;20235;-83
2023/12/12 06:18:14;;;;;;;26.60;5.97;;;;;8.60;99988.00;;;;10143621;29;20309;-82
2023/12/12 06:23:15;;;;;;;23.60;6.37;;;;;8.70;99981.00;;;;10102629;29;20223;-84
2023/12/12 06:28:17;;;;;;;23.30;6.17;;;;;8.70;99973.00;;;;10137059;29;20687;-84
2023/12/12 06:33:18;;;;;;;20.97;5.87;;;;;8.70;99962.00;;;;10107001;29;20234;-84
2023/12/12 06:38:20;;;;;;;20.07;5.13;;;;;8.80;99965.00;;;;10113605;29;20247;-83
2023/12/12 06:43:21;;;;;;;16.73;6.27;;;;;8.80;99968.00;;;;10115176;29;20309;-85
2023/12/12 06:48:22;;;;;;;16.33;5.37;;;;;8.80;99961.00;;;;10104548;29;20913;-83
2023/12/12 06:53:23;;;;;;;19.23;5.57;;;;;8.80;99955.00;;;;10117280;29;20352;-86
2023/12/12 06:58:25;;;;;;;17.20;5.57;;;;;8.90;99958.00;;;;10123663;29;20242;-82
2023/12/12 07:03:26;;;;;;;19.33;5.00;;;;;8.90;99940.00;;;;10121834;29;20285;-83
2023/12/12 07:08:27;;;;;;;25.80;5.50;;;;;8.90;99952.00;;;;10136792;29;20215;-83
2023/12/12 07:13:29;;;;;;;17.87;5.23;;;;;8.90;99942.00;;;;10139155;29;20957;-84
2023/12/12 07:18:30;;;;;;;15.77;4.70;;;;;9.00;99946.00;;;;10111678;28;20337;-81
2023/12/12 07:23:32;;;;;;;13.43;4.43;;;;;9.00;99950.00;;;;10127819;29;20262;-81
2023/12/12 07:28:33;;;;;;;17.00;5.07;;;;;9.10;99940.00;;;;10120246;29;20249;-81
2023/12/12 07:33:34;;;;;;;18.90;4.83;;;;;9.10;99936.00;;;;10126906;29;20234;-81
2023/12/12 07:38:35;;;;;;;11.97;5.30;;;;;9.10;99935.00;;;;10118235;29;20851;-82
2023/12/12 07:43:36;;;;;;;17.37;4.90;;;;;9.20;99932.00;;;;10125162;29;20294;-81
2023/12/12 07:48:38;;;;;;;10.73;4.60;;;;;9.20;99929.00;;;;10121350;29;20234;-79
2023/12/12 07:53:39;;;;;;;15.63;4.43;;;;;9.20;99932.00;;;;10109137;29;20235;-81
2023/12/12 07:58:40;;;;;;;16.20;4.63;;;;;9.20;99923.00;;;;10103865;29;20318;-82
2023/12/12 08:03:41;;;;;;;15.77;5.13;;;;;9.20;99926.00;;;;10107325;29;20313;-81
2023/12/12 08:08:43;;;;;;;9.80;4.07;;;;;9.10;99929.00;;;;10110985;29;20235;-81
2023/12/12 08:13:44;;;;;;;12.67;4.80;;;;;9.10;99924.00;;;;10116002;29;20301;-81
2023/12/12 08:18:45;;;;;;;13.10;4.40;;;;;9.20;99923.00;;;;10119253;29;20982;-82
2023/12/12 08:23:48;;;;;;;8.97;4.00;;;;;9.30;99920.00;;;;10117702;29;20792;-81
2023/12/12 08:28:49;;;;;;;10.70;4.17;;;;;9.50;99912.00;;;;10117255;29;20241;-81
2023/12/12 08:33:50;;;;;;;13.50;4.77;;;;;9.60;99898.00;;;;10140232;29;20231;-81
2023/12/12 08:38:53;;;;;;;9.53;3.93;;;;;9.70;99893.00;;;;10127046;29;20572;-82
2023/12/12 08:43:55;;;;;;;14.67;4.27;;;;;9.60;99881.00;;;;10131337;29;20314;-82
2023/12/12 08:48:57;;;;;;;12.80;5.27;;;;;9.60;99869.00;;;;10144221;29;20225;-81
2023/12/12 08:53:58;;;;;;;15.93;5.30;;;;;9.60;99868.00;;;;10122621;29;20234;-80
2023/12/12 08:58:59;;;;;;;9.33;4.10;;;;;9.70;99861.00;;;;10098294;29;20263;-81
2023/12/12 09:04:02;;;;;;;11.00;4.60;;;;;9.80;99862.00;;;;10116997;29;20233;-81
2023/12/12 09:09:03;;;;;;;10.47;4.30;;;;;9.80;99855.00;;;;10129606;29;20226;-81
2023/12/12 09:14:06;;;;;;;8.30;3.70;;;;;10.00;99844.00;;;;10123011;29;20230;-82
2023/12/12 09:19:09;;;;;;;7.50;4.07;;;;;10.10;99842.00;;;;10099950;29;20865;-81
2023/12/12 09:24:13;;;;;;;5.93;3.43;;;;;10.20;99826.00;;;;10128199;29;20245;-81
2023/12/12 09:29:14;;;;;;;10.43;4.37;;;;;10.30;99821.00;;;;10097284;29;20268;-81
2023/12/12 09:34:15;;;;;;;9.43;4.13;;;;;10.80;99805.00;;;;10117751;29;20374;-81
2023/12/12 09:39:19;;;;;;;10.50;3.93;;;;;11.00;99793.00;;;;10115091;29;20325;-85
2023/12/12 09:44:21;;;;;;;8.50;3.70;;;;;11.20;99796.00;;;;10086696;29;20234;-84
2023/12/12 09:49:23;;;;;;;9.87;3.20;;;;;11.40;99796.00;;;;10125313;29;20321;-84
2023/12/12 09:54:24;;;;;;;6.70;3.67;;;;;11.50;99804.00;;;;10097969;29;20301;-84
2023/12/12 09:59:25;;;;;;;9.33;3.43;;;;;11.60;99793.00;;;;10178089;28;20237;-83
2023/12/12 10:04:27;;;;;;;7.93;3.67;;;;;11.80;99790.00;;;;10132090;29;20303;-84
2023/12/12 10:09:31;;;;;;;6.40;3.30;;;;;12.00;99777.00;;;;10093389;29;20943;-84
2023/12/12 10:14:38;;;;;;;6.10;2.93;;;;;11.90;99758.00;;;;10107692;29;20232;-84
2023/12/12 10:19:41;;;;;;;6.73;3.00;;;;;11.40;99749.00;;;;10129519;29;20758;-84
2023/12/12 10:24:42;;;;;;;5.07;2.70;;;;;11.10;99740.00;;;;10118008;29;20239;-84
2023/12/12 10:29:45;;;;;;;6.13;2.77;;;;;11.00;99742.00;;;;10112603;29;20226;-83
2023/12/12 10:34:46;;;;;;;5.50;3.10;;;;;11.00;99736.00;;;;10098896;29;20368;-84
2023/12/12 10:39:49;;;;;;;9.97;3.13;;;;;11.00;99722.00;;;;10103622;29;20286;-84
2023/12/12 10:44:56;;;;;;;4.83;3.20;;;;;11.30;99724.00;;;;10113745;29;20235;-85
2023/12/12 10:50:01;;;;;;;8.07;3.00;;;;;11.50;99711.00;;;;10115593;29;20238;-89
2023/12/12 10:55:04;;;;;;;6.03;3.27;;;;;11.70;99695.00;;;;10103563;29;20282;-90
2023/12/12 11:00:11;;;;;;;9.10;3.63;;;;;11.70;99699.00;;;;10127440;29;20283;-89
2023/12/12 11:05:19;;;;;;;8.87;2.77;;;;;11.90;99691.00;;;;10106009;29;20223;-91
2023/12/12 11:10:22;;;;;;;7.30;3.20;;;;;11.80;99694.00;;;;10121822;29;20871;-91
2023/12/12 11:15:24;;;;;;;5.20;2.73;;;;;12.00;99669.00;;;;10123319;29;20238;-90
2023/12/12 11:20:26;;;;;;;4.83;2.93;;;;;12.30;99664.00;;;;10137793;29;20257;-92
2023/12/12 11:25:28;;;;;;;6.50;2.78;;;;;12.30;99663.00;;;;10140557;29;20229;-92
2023/12/12 11:30:38;;;;;;;4.13;2.70;;;;;12.30;99650.00;;;;10129783;29;20237;-91
2023/12/12 11:35:39;;;;;;;6.03;2.13;;;;;12.30;99646.00;;;;10126799;29;20269;-89
2023/12/12 11:40:40;;;;;;;6.30;2.65;;;;;12.20;99628.00;;;;10157383;29;20497;-90
2023/12/12 11:45:42;;;;;;;4.43;2.47;;;;;12.00;99625.00;;;;10142566;29;20237;-87
2023/12/12 11:50:45;;;;;;;4.67;2.50;;;;;11.80;99629.00;;;;10142436;29;20321;-90
2023/12/12 11:55:46;;;;;;;3.05;2.05;;;;;11.80;99617.00;;;;10129525;29;20234;-91
2023/12/12 12:00:47;;;;;;;6.55;3.45;;;;;12.00;99610.00;;;;10115220;29;20322;-83
2023/12/12 12:05:48;;;;;;;2.75;2.50;;;;;12.30;99608.00;;;;10107375;29;20243;-83
2023/12/12 12:10:57;;;;;;;5.67;3.03;;;;;12.20;99614.00;;;;10109767;29;20639;-83
2023/12/12 12:15:58;;;;;;;4.00;3.33;;;;;12.30;99606.00;;;;10130351;29;20277;-85
2023/12/12 12:21:03;;;;;;;5.30;2.88;;;;;12.00;99598.00;;;;10120746;29;20317;-85
2023/12/12 12:26:04;;;;;;;2.80;2.17;;;;;12.20;99591.00;;;;10113558;29;20253;-85
2023/12/12 12:31:05;;;;;;;3.73;2.23;;;;;12.10;99588.00;;;;10120512;29;20266;-84
2023/12/12 12:36:08;;;;;;;3.10;2.40;;;;;11.90;99587.00;;;;10116291;29;20234;-85
2023/12/12 12:41:23;;;;;;;3.45;2.88;;;;;12.20;99586.00;;;;10138957;29;20613;-84
2023/12/12 12:46:24;;;;;;;5.13;3.47;;;;;12.10;99571.00;;;;10110868;29;20234;-85
2023/12/12 12:51:26;;;;;;;3.70;3.38;;;;;12.20;99563.00;;;;10118848;29;20235;-84
2023/12/12 12:56:28;;;;;;;5.15;3.75;;;;;12.60;99546.00;;;;10117883;29;20826;-84
2023/12/12 13:01:29;;;;;;;4.47;3.90;;;;;12.80;99531.00;;;;10115395;29;20277;-84
2023/12/12 13:06:31;;;;;;;4.47;4.05;;;;;12.80;99536.00;;;;10118787;29;20235;-80
2023/12/12 13:11:32;;;;;;;7.57;4.68;;;;;12.70;99528.00;;;;10132462;29;20309;-88
2023/12/12 13:16:34;;;;;;;4.70;4.15;;;;;12.60;99507.00;;;;10134303;29;20226;-87
2023/12/12 13:21:35;;;;;;;5.50;3.97;;;;;12.60;99510.00;;;;10163683;29;20322;-88
2023/12/12 13:26:36;;;;;;;4.65;4.00;;;;;12.50;99507.00;;;;10140599;29;20230;-88
2023/12/12 13:31:37;;;;;;;4.93;3.90;;;;;12.40;99500.00;;;;10156708;29;20798;-87
2023/12/12 13:36:40;;;;;;;7.93;4.18;;;;;12.30;99489.00;;;;10160714;29;20223;-88
2023/12/12 13:41:42;;;;;;;3.97;3.58;;;;;12.30;99468.00;;;;10141844;29;20234;-88
2023/12/12 13:46:44;;;;;;;5.32;3.25;;;;;12.30;99474.00;;;;10157330;23;20258;-87
2023/12/12 13:51:45;;;;;;;5.65;3.20;;;;;12.20;99470.00;;;;10095725;24;20249;-88
2023/12/12 13:56:50;;;;;;;4.10;3.42;;;;;12.40;99467.00;;;;10054905;29;20229;-90
2023/12/12 14:01:51;;;;;;;5.20;3.45;;;;;12.60;99461.00;;;;10074218;29;20224;-89
2023/12/12 14:06:53;;;;;;;5.60;3.55;;;;;12.60;99462.00;;;;10057246;29;20291;-90
2023/12/12 14:11:54;;;;;;;4.18;3.45;;;;;12.50;99454.00;;;;10081649;29;20220;-90
2023/12/12 14:16:55;;;;;;;6.63;3.77;;;;;12.30;99447.00;;;;10065843;29;20227;-83
2023/12/12 14:21:57;;;;;;;5.03;3.85;;;;;12.20;99443.00;;;;10048700;29;20240;-83
2023/12/12 14:26:59;;;;;;;3.22;2.75;;;;;12.20;99442.00;;;;10066850;29;20258;-85
2023/12/12 14:32:01;;;;;;;4.30;3.17;;;;;12.30;99445.00;;;;10054602;29;20276;-88
2023/12/12 14:37:02;;;;;;;4.13;2.57;;;;;12.40;99425.00;;;;10071427;29;20281;-83
2023/12/12 14:42:04;;;;;;;4.70;2.78;;;;;12.30;99431.00;;;;10066289;29;20957;-84
2023/12/12 14:47:05;;;;;;;5.55;3.03;;;;;12.30;99430.00;;;;10054848;29;20236;-83
2023/12/12 14:52:07;;;;;;;6.85;2.42;;;;;12.30;99421.00;;;;10053871;29;20236;-85
2023/12/12 14:57:08;;;;;;;8.80;2.90;;;;;12.50;99421.00;;;;10059890;29;20232;-85
2023/12/12 15:02:20;;;;;;;6.85;3.05;;;;;12.20;99416.00;;;;10055848;29;20229;-85
2023/12/12 15:07:21;;;;;;;4.78;2.70;;;;;12.10;99407.00;;;;10044275;29;20263;-84
2023/12/12 15:12:23;;;;;;;6.70;2.70;;;;;12.00;99398.00;;;;10065730;29;20233;-83
2023/12/12 15:17:24;;;;;;;4.68;2.95;;;;;11.80;99392.00;;;;10040670;29;20260;-83
2023/12/12 15:22:25;;;;;;;6.40;2.67;;;;;11.70;99397.00;;;;10118464;29;20222;-89
2023/12/12 15:27:26;;;;;;;5.22;2.20;;;;;11.70;99378.00;;;;10105431;29;20224;-85
2023/12/12 15:32:27;;;;;;;8.18;3.03;;;;;11.60;99374.00;;;;10080817;29;20315;-85
2023/12/12 15:37:29;;;;;;;7.17;2.90;;;;;11.40;99376.00;;;;10096509;29;20641;-85
2023/12/12 15:42:30;;;;;;;4.50;2.53;;;;;11.20;99356.00;;;;10085455;29;21054;-85
2023/12/12 15:47:31;;;;;;;7.83;2.53;;;;;11.10;99355.00;;;;10090508;29;20224;-85
2023/12/12 15:52:33;;;;;;;4.53;2.07;;;;;10.90;99356.00;;;;10091435;29;20253;-85
2023/12/12 15:57:34;;;;;;;8.47;2.50;;;;;10.70;99356.00;;;;10073611;29;20751;-84
2023/12/12 16:02:36;;;;;;;6.90;2.67;;;;;10.50;99355.00;;;;10077108;29;20223;-84
2023/12/12 16:07:38;;;;;;;11.37;2.60;;;;;10.40;99350.00;;;;10094835;29;20231;-82
2023/12/12 16:12:39;;;;;;;11.20;2.83;;;;;10.40;99341.00;;;;10093878;29;20227;-85
2023/12/12 16:17:42;;;;;;;6.23;2.20;;;;;10.40;99355.00;;;;10088650;29;20294;-86
2023/12/12 16:22:46;;;;;;;10.83;2.40;;;;;10.30;99333.00;;;;10091499;29;21136;-86
2023/12/12 16:27:48;;;;;;;8.53;2.57;;;;;10.30;99326.00;;;;10093140;29;20268;-86
2023/12/12 16:32:59;;;;;;;12.27;2.83;;;;;10.20;99315.00;;;;10071689;29;20228;-85
2023/12/12 16:38:01;;;;;;;10.10;2.60;;;;;10.10;99300.00;;;;10092818;29;20311;-85
2023/12/12 16:43:02;;;;;;;7.93;2.70;;;;;10.10;99292.00;;;;10073499;29;21027;-85
2023/12/12 16:48:04;;;;;;;4.87;2.00;;;;;10.10;99289.00;;;;10070124;29;20231;-85
2023/12/12 16:53:09;;;;;;;7.93;2.87;;;;;10.00;99284.00;;;;10067887;29;20270;-85
2023/12/12 16:58:10;;;;;;;13.00;2.37;;;;;9.90;99300.00;;;;10087694;29;20327;-85
2023/12/12 17:03:11;;;;;;;14.17;2.50;;;;;9.90;99282.00;;;;10075848;29;20262;-85
2023/12/12 17:08:13;;;;;;;10.80;2.10;;;;;9.90;99288.00;;;;10074488;29;20255;-85
2023/12/12 17:13:14;;;;;;;8.20;2.90;;;;;9.80;99279.00;;;;10077595;29;20912;-84
2023/12/12 17:18:18;;;;;;;10.97;2.57;;;;;9.80;99278.00;;;;10091536;29;20310;-85
2023/12/12 17:23:19;;;;;;;8.00;3.03;;;;;9.70;99273.00;;;;10088687;29;20301;-84
2023/12/12 17:28:20;;;;;;;12.27;2.57;;;;;9.60;99264.00;;;;10076301;28;20266;-84
2023/12/12 17:33:22;;;;;;;11.17;3.00;;;;;9.50;99262.00;;;;10073005;29;20231;-85
2023/12/12 17:38:23;;;;;;;10.07;4.03;;;;;9.60;99262.00;;;;10093080;29;20231;-85
2023/12/12 17:43:24;;;;;;;11.87;3.37;;;;;9.70;99259.00;;;;10077285;29;20302;-85
2023/12/12 17:48:25;;;;;;;9.90;3.33;;;;;9.70;99249.00;;;;10094671;29;20237;-87
2023/12/12 17:53:26;;;;;;;20.77;3.67;;;;;9.80;99235.00;;;;10075839;29;20239;-89
2023/12/12 17:58:28;;;;;;;18.63;3.77;;;;;9.80;99236.00;;;;10075211;29;20326;-91
2023/12/12 18:03:30;;;;;;;7.43;3.50;;;;;9.80;99235.00;;;;10107786;29;20223;-89
2023/12/12 18:08:33;;;;;;;8.47;3.23;;;;;9.90;99238.00;;;;10163545;29;20219;-88
2023/12/12 18:13:35;;;;;;;8.47;2.90;;;;;10.00;99247.00;;;;10103989;29;20717;-90
2023/12/12 18:18:36;;;;;;;15.83;3.30;;;;;10.00;99234.00;;;;10085949;29;20322;-91
2023/12/12 18:23:38;;;;;;;10.77;3.70;;;;;10.10;99228.00;;;;10092577;29;20242;-90
2023/12/12 18:28:42;;;;;;;10.53;2.90;;;;;10.20;99238.00;;;;10094710;29;20235;-88
2023/12/12 18:33:44;;;;;;;9.37;2.77;;;;;10.20;99241.00;;;;10096451;29;20239;-90
2023/12/12 18:38:45;;;;;;;12.63;3.17;;;;;10.20;99238.00;;;;10103691;29;20601;-89
2023/12/12 18:43:47;;;;;;;13.97;3.40;;;;;10.00;99228.00;;;;10094393;29;20228;-88
2023/12/12 18:48:49;;;;;;;11.30;2.93;;;;;9.90;99227.00;;;;10074095;29;20231;-88
2023/12/12 18:53:50;;;;;;;10.80;3.77;;;;;9.90;99226.00;;;;10080223;29;20240;-88
2023/12/12 18:58:52;;;;;;;18.10;4.30;;;;;9.90;99234.00;;;;10092918;29;20235;-88
2023/12/12 19:03:54;;;;;;;8.63;2.80;;;;;9.90;99221.00;;;;10091319;29;20232;-89
2023/12/12 19:08:55;;;;;;;6.60;2.60;;;;;9.90;99209.00;;;;10085689;29;20319;-88
2023/12/12 19:13:56;;;;;;;16.63;3.87;;;;;9.90;99210.00;;;;10079126;29;20227;-88
2023/12/12 19:18:57;;;;;;;13.27;3.20;;;;;9.90;99209.00;;;;10088703;29;20277;-89
2023/12/12 19:23:59;;;;;;;8.47;3.90;;;;;9.80;99211.00;;;;10092574;29;20314;-89
2023/12/12 19:29:01;;;;;;;8.47;2.77;;;;;9.70;99211.00;;;;10098627;29;20219;-89
2023/12/12 19:34:03;;;;;;;6.27;2.23;;;;;9.60;99202.00;;;;10093538;29;20237;-91
2023/12/12 19:39:04;;;;;;;6.00;1.87;;;;;9.60;99201.00;;;;10082158;29;20778;-88
2023/12/12 19:44:05;;;;;;;5.33;1.80;;;;;9.60;99200.00;;;;10105235;29;20228;-90
2023/12/12 19:49:07;;;;;;;4.67;1.40;;;;;9.40;99206.00;;;;10079253;29;20906;-91
2023/12/12 19:54:08;;;;;;;5.77;2.20;;;;;9.30;99204.00;;;;10108077;29;20470;-89
2023/12/12 19:59:11;;;;;;;4.57;1.23;;;;;9.20;99205.00;;;;10078765;29;20670;-90
2023/12/12 20:04:12;;;;;;;3.00;1.20;;;;;9.10;99208.00;;;;10098723;29;20235;-90
2023/12/12 20:09:14;;;;;;;1.33;1.10;;;;;9.00;99205.00;;;;10078557;29;20896;-90
2023/12/12 20:14:16;;;;;;;2.87;0.90;;;;;9.00;99223.00;;;;10075639;29;20238;-88
2023/12/12 20:19:17;;;;;;;2.27;1.00;;;;;8.80;99216.00;;;;10075125;29;20285;-85
2023/12/12 20:24:18;;;;;;;4.87;1.70;;;;;8.70;99223.00;;;;10095444;29;20876;-86
2023/12/12 20:29:19;;;;;;;3.30;1.20;;;;;8.60;99232.00;;;;10094597;29;20338;-86
2023/12/12 20:34:21;;;;;;;3.43;1.13;;;;;8.60;99238.00;;;;10072942;29;20227;-86
2023/12/12 20:39:23;;;;;;;3.57;1.30;;;;;8.50;99247.00;;;;10089889;29;20238;-86
2023/12/12 20:44:24;;;;;;;4.93;1.30;;;;;8.50;99242.00;;;;10085911;29;20231;-86
2023/12/12 20:49:25;;;;;;;4.83;1.63;;;;;8.50;99261.00;;;;10091747;29;20234;-85
2023/12/12 20:54:26;;;;;;;5.90;1.20;;;;;8.40;99259.00;;;;10112658;29;20228;-85
2023/12/12 20:59:27;;;;;;;7.23;1.60;;;;;8.40;99242.00;;;;10154707;29;20223;-86
2023/12/12 21:04:29;;;;;;;9.03;2.03;;;;;8.40;99239.00;;;;10108014;29;20951;-85
2023/12/12 21:09:30;;;;;;;10.53;1.77;;;;;8.40;99240.00;;;;10088532;29;20749;-86
2023/12/12 21:14:31;;;;;;;5.97;1.30;;;;;8.30;99230.00;;;;10072897;29;20223;-85
2023/12/12 22:27:38;;;;;;;3.70;1.00;;;;;7.90;99196.00;;;;11752707;23;20243;-81
2023/12/12 22:32:39;;;;;;;5.00;1.40;;;;;7.80;99183.00;;;;10092865;29;20255;-84
2023/12/12 22:37:41;;;;;;;4.87;1.43;;;;;7.80;99189.00;;;;10073961;29;20226;-82
2023/12/12 22:42:42;;;;;;;3.60;1.20;;;;;7.80;99192.00;;;;10072626;29;20225;-85
2023/12/12 22:47:43;;;;;;;6.27;1.63;;;;;7.90;99195.00;;;;10065068;29;20236;-86
2023/12/12 22:52:48;;;;;;;5.10;1.23;;;;;8.00;99189.00;;;;10077073;29;20717;-84
2023/12/12 22:57:49;;;;;;;9.80;1.57;;;;;8.00;99185.00;;;;10072077;29;20272;-84
2023/12/12 23:02:50;;;;;;;7.03;1.90;;;;;8.10;99182.00;;;;10075757;29;20319;-85
2023/12/12 23:07:52;;;;;;;6.63;1.70;;;;;8.10;99180.00;;;;10071907;29;20233;-84
2023/12/12 23:12:54;;;;;;;8.77;1.67;;;;;8.10;99183.00;;;;10078229;29;20228;-83
2023/12/12 23:17:55;;;;;;;8.70;1.63;;;;;8.20;99174.00;;;;10069293;29;20311;-84
2023/12/12 23:22:57;;;;;;;7.13;1.97;;;;;8.20;99178.00;;;;10104213;29;20227;-84
2023/12/12 23:27:58;;;;;;;12.80;2.33;;;;;8.20;99176.00;;;;10098796;29;20391;-85
2023/12/12 23:32:59;;;;;;;9.20;1.87;;;;;8.30;99171.00;;;;10097243;29;20220;-84
2023/12/12 23:38:01;;;;;;;8.17;1.53;;;;;8.40;99157.00;;;;10108689;29;20231;-88
2023/12/12 23:43:02;;;;;;;11.87;2.07;;;;;8.40;99152.00;;;;10120290;29;20321;-87
2023/12/12 23:48:04;;;;;;;11.70;2.17;;;;;8.50;99138.00;;;;10106196;29;20231;-87
2023/12/12 23:53:05;;;;;;;15.83;2.43;;;;;8.50;99130.00;;;;10109270;29;20812;-87
2023/12/12 23:58:06;;;;;;;9.37;2.10;;;;;8.60;99125.00;;;;10114655;29;20223;-86
